createdAt,value
2018-09-12T00:00:37.102Z,2.65
2018-09-12T00:03:07.356Z,3.50
2018-09-12T00:05:37.095Z,2.12
2018-09-12T00:08:07.144Z,2.70
2018-09-12T00:10:37.091Z,2.57
2018-09-12T00:13:07.853Z,2.00
2018-09-12T00:15:37.189Z,1.80
2018-09-12T00:18:07.060Z,3.55
2018-09-12T00:20:37.162Z,1.55
2018-09-12T00:23:07.169Z,1.87
2018-09-12T00:25:37.175Z,2.27
2018-09-12T00:28:07.180Z,3.00
2018-09-12T00:30:37.124Z,1.93
2018-09-12T00:33:07.305Z,2.05
2018-09-12T00:35:37.281Z,1.77
2018-09-12T00:38:07.232Z,2.57
2018-09-12T00:40:37.290Z,2.70
2018-09-12T00:43:07.337Z,1.45
2018-09-12T00:45:37.283Z,4.20
2018-09-12T00:48:07.239Z,1.60
2018-09-12T00:50:37.321Z,2.22
2018-09-12T00:53:07.309Z,2.02
2018-09-12T00:55:37.410Z,2.40
2018-09-12T00:58:07.351Z,1.22
2018-09-12T01:00:37.309Z,1.63
2018-09-12T01:03:07.702Z,1.20
2018-09-12T01:05:41.182Z,3.20
2018-09-12T01:08:11.891Z,1.27
2018-09-12T01:10:41.257Z,1.40
2018-09-12T01:13:10.727Z,1.70
2018-09-12T01:15:40.052Z,2.57
2018-09-12T01:18:13.479Z,3.00
2018-09-12T01:20:42.806Z,3.53
2018-09-12T01:23:12.132Z,2.33
2018-09-12T01:25:41.566Z,3.42
2018-09-12T01:28:10.854Z,3.77
2018-09-12T01:30:40.143Z,3.17
2018-09-12T01:33:09.460Z,2.55
2018-09-12T01:35:38.779Z,3.23
2018-09-12T01:38:08.090Z,4.50
2018-09-12T01:40:37.538Z,2.98
2018-09-12T01:43:07.447Z,3.87
2018-09-12T01:45:37.544Z,5.17
2018-09-12T01:48:07.592Z,2.80
2018-09-12T01:50:37.534Z,4.37
2018-09-12T01:53:07.642Z,2.90
2018-09-12T01:55:37.654Z,3.98
2018-09-12T01:58:07.651Z,4.05
2018-09-12T02:00:40.026Z,3.98
2018-09-12T02:03:10.065Z,3.80
2018-09-12T02:05:39.574Z,2.57
2018-09-12T02:08:08.969Z,3.33
2018-09-12T02:10:38.266Z,3.43
2018-09-12T02:13:07.722Z,3.60
2018-09-12T02:15:37.718Z,3.25
2018-09-12T02:18:07.764Z,3.40
2018-09-12T02:20:37.611Z,3.87
2018-09-12T02:23:07.606Z,3.65
2018-09-12T02:25:37.816Z,4.15
2018-09-12T02:28:07.721Z,4.20
2018-09-12T02:30:37.690Z,3.20
2018-09-12T02:33:07.739Z,3.35
2018-09-12T02:35:42.960Z,4.83
2018-09-12T02:38:12.277Z,3.23
2018-09-12T02:40:41.587Z,2.97
2018-09-12T02:43:10.920Z,3.37
2018-09-12T02:45:40.253Z,4.40
2018-09-12T02:48:09.592Z,5.33
2018-09-12T02:50:38.923Z,5.93
2018-09-12T02:53:08.252Z,3.10
2018-09-12T02:55:37.739Z,3.77
2018-09-12T02:58:07.850Z,3.67
2018-09-12T03:00:37.846Z,4.28
2018-09-12T03:03:07.956Z,4.37
2018-09-12T03:05:37.905Z,5.00
2018-09-12T03:08:07.878Z,3.90
2018-09-12T03:10:37.860Z,4.37
2018-09-12T03:13:07.902Z,4.60
2018-09-12T03:15:37.907Z,4.42
2018-09-12T03:18:07.877Z,3.87
2018-09-12T03:20:37.886Z,4.42
2018-09-12T03:23:07.825Z,5.05
2018-09-12T03:25:37.916Z,5.28
2018-09-12T03:28:07.893Z,6.20
2018-09-12T03:30:37.915Z,5.12
2018-09-12T03:33:08.256Z,7.62
2018-09-12T03:35:38.003Z,5.20
2018-09-12T03:38:07.964Z,3.83
2018-09-12T03:40:37.971Z,5.07
2018-09-12T03:43:07.968Z,3.67
2018-09-12T03:45:38.057Z,4.15
2018-09-12T03:48:08.154Z,4.75
2018-09-12T03:50:38.014Z,5.70
2018-09-12T03:53:08.003Z,4.80
2018-09-12T03:55:38.085Z,5.10
2018-09-12T03:58:08.006Z,2.80
2018-09-12T04:00:38.031Z,3.72
2018-09-12T04:03:08.130Z,3.33
2018-09-12T04:05:38.096Z,4.80
2018-09-12T04:08:08.270Z,4.87
2018-09-12T04:10:38.125Z,4.80
2018-09-12T04:13:08.081Z,5.97
2018-09-12T04:15:38.149Z,6.50
2018-09-12T04:18:08.128Z,4.90
2018-09-12T04:20:38.301Z,5.45
2018-09-12T04:23:08.257Z,5.55
2018-09-12T04:25:38.108Z,4.87
2018-09-12T04:28:08.241Z,5.30
2018-09-12T04:30:38.078Z,4.75
2018-09-12T04:33:08.182Z,6.83
2018-09-12T04:35:38.308Z,3.83
2018-09-12T04:38:08.163Z,5.67
2018-09-12T04:40:38.164Z,6.10
2018-09-12T04:43:08.291Z,6.00
2018-09-12T04:45:38.400Z,6.65
2018-09-12T04:48:08.254Z,6.58
2018-09-12T04:50:38.294Z,5.12
2018-09-12T04:53:08.257Z,5.20
2018-09-12T04:55:38.335Z,7.97
2018-09-12T04:58:11.254Z,6.25
2018-09-12T05:00:40.732Z,4.30
2018-09-12T05:03:10.031Z,7.00
2018-09-12T05:05:39.336Z,5.30
2018-09-12T05:08:08.678Z,6.03
2018-09-12T05:10:38.374Z,4.35
2018-09-12T05:13:08.358Z,5.33
2018-09-12T05:15:38.320Z,6.03
2018-09-12T05:18:08.338Z,7.03
2018-09-12T05:20:38.475Z,3.33
2018-09-12T05:23:08.416Z,5.78
2018-09-12T05:25:38.395Z,6.55
2018-09-12T05:28:08.407Z,4.75
2018-09-12T05:30:38.415Z,6.97
2018-09-12T05:33:08.414Z,9.18
2018-09-12T05:35:38.368Z,5.42
2018-09-12T05:38:08.378Z,6.65
2018-09-12T05:40:38.526Z,4.20
2018-09-12T05:43:08.557Z,7.10
2018-09-12T05:45:38.486Z,3.90
2018-09-12T05:48:08.495Z,5.90
2018-09-12T05:50:38.496Z,3.83
2018-09-12T05:53:08.552Z,4.92
2018-09-12T05:55:38.560Z,7.17
2018-09-12T05:58:08.418Z,4.90
2018-09-12T06:00:38.608Z,3.92
2018-09-12T06:03:08.604Z,4.85
2018-09-12T06:05:38.530Z,6.45
2018-09-12T06:08:08.631Z,6.03
2018-09-12T06:10:38.572Z,4.75
2018-09-12T06:13:08.637Z,4.28
2018-09-12T06:15:38.650Z,4.50
2018-09-12T06:18:08.632Z,7.97
2018-09-12T06:20:38.692Z,5.20
2018-09-12T06:23:08.722Z,5.72
2018-09-12T06:25:38.725Z,5.72
2018-09-12T06:28:08.642Z,10.82
2018-09-12T06:30:38.688Z,5.33
2018-09-12T06:33:08.701Z,4.83
2018-09-12T06:35:38.642Z,5.65
2018-09-12T06:38:08.658Z,7.15
2018-09-12T06:40:38.679Z,5.93
2018-09-12T06:43:08.891Z,8.40
2018-09-12T06:45:38.768Z,5.35
2018-09-12T06:48:08.960Z,6.58
2018-09-12T06:50:38.702Z,6.22
2018-09-12T06:53:08.767Z,4.45
2018-09-12T06:55:38.750Z,5.47
2018-09-12T06:58:08.743Z,5.62
2018-09-12T07:00:38.787Z,7.17
2018-09-12T07:03:08.846Z,6.25
2018-09-12T07:05:38.763Z,6.20
2018-09-12T07:08:08.882Z,5.50
2018-09-12T07:10:38.792Z,5.85
2018-09-12T07:13:08.922Z,6.08
2018-09-12T07:15:38.758Z,5.12
2018-09-12T07:18:08.798Z,5.45
2018-09-12T07:20:38.872Z,3.87
2018-09-12T07:23:09.041Z,3.40
2018-09-12T07:25:38.854Z,5.83
2018-09-12T07:28:08.960Z,5.65
2018-09-12T07:30:39.096Z,4.58
2018-09-12T07:33:08.867Z,5.62
2018-09-12T07:35:38.905Z,4.55
2018-09-12T07:38:08.892Z,4.60
2018-09-12T07:40:38.962Z,6.83
2018-09-12T07:43:08.908Z,4.50
2018-09-12T07:45:38.949Z,5.40
2018-09-12T07:48:09.135Z,7.10
2018-09-12T07:50:39.026Z,4.25
2018-09-12T07:53:09.034Z,5.30
2018-09-12T07:55:38.989Z,5.12
2018-09-12T07:58:09.021Z,4.70
2018-09-12T08:00:39.103Z,3.83
2018-09-12T08:03:09.113Z,7.30
2018-09-12T08:05:39.042Z,6.55
2018-09-12T08:08:09.060Z,7.12
2018-09-12T08:10:39.079Z,10.43
2018-09-12T08:13:09.081Z,5.53
2018-09-12T08:15:39.041Z,8.68
2018-09-12T08:18:09.036Z,8.13
2018-09-12T08:20:39.123Z,5.92
2018-09-12T08:23:09.099Z,4.17
2018-09-12T08:25:39.097Z,10.70
2018-09-12T08:28:15.417Z,5.63
2018-09-12T08:30:44.743Z,5.23
2018-09-12T08:33:14.059Z,6.00
2018-09-12T08:35:43.365Z,9.70
2018-09-12T08:38:12.733Z,6.87
2018-09-12T08:40:42.255Z,4.13
2018-09-12T08:43:11.615Z,6.00
2018-09-12T08:45:47.458Z,6.87
2018-09-12T08:48:16.787Z,5.20
2018-09-12T08:50:49.162Z,9.45
2018-09-12T08:53:19.322Z,8.87
2018-09-12T08:55:49.458Z,5.10
2018-09-12T08:58:18.911Z,6.27
2018-09-12T09:00:48.340Z,5.90
2018-09-12T09:03:17.638Z,6.63
2018-09-12T09:05:47.181Z,5.78
2018-09-12T09:08:16.553Z,5.47
2018-09-12T09:10:45.887Z,8.70
2018-09-12T09:13:15.248Z,6.03
2018-09-12T09:15:44.626Z,5.47
2018-09-12T09:18:13.922Z,6.25
2018-09-12T09:20:43.230Z,5.00
2018-09-12T09:23:12.573Z,6.23
2018-09-12T09:25:41.879Z,5.33
2018-09-12T09:28:11.214Z,7.10
2018-09-12T09:30:40.527Z,6.53
2018-09-12T09:33:09.878Z,6.87
2018-09-12T09:35:39.515Z,7.08
2018-09-12T09:38:09.327Z,6.08
2018-09-12T09:40:39.374Z,4.47
2018-09-12T09:43:12.476Z,7.47
2018-09-12T09:45:42.013Z,6.67
2018-09-12T09:48:11.422Z,5.67
2018-09-12T09:50:40.671Z,5.30
2018-09-12T09:53:10.009Z,6.77
2018-09-12T09:55:39.378Z,6.42
2018-09-12T09:58:09.407Z,7.85
2018-09-12T10:00:44.664Z,4.60
2018-09-12T10:03:19.113Z,5.13
2018-09-12T10:05:53.733Z,5.67
2018-09-12T10:08:29.667Z,4.53
2018-09-12T10:10:59.638Z,6.57
2018-09-12T10:13:28.979Z,4.57
2018-09-12T10:15:58.381Z,5.95
2018-09-12T10:18:27.792Z,5.13
2018-09-12T10:20:57.145Z,3.90
2018-09-12T10:23:26.521Z,4.67
2018-09-12T10:25:55.939Z,4.92
2018-09-12T10:28:25.318Z,5.43
2018-09-12T10:30:54.644Z,7.93
2018-09-12T10:33:25.250Z,5.47
2018-09-12T10:35:54.675Z,4.67
2018-09-12T10:38:24.056Z,5.17
2018-09-12T10:40:53.456Z,4.87
2018-09-12T10:43:22.828Z,7.30
2018-09-12T10:45:52.522Z,5.07
2018-09-12T10:48:21.880Z,5.43
2018-09-12T10:50:51.279Z,7.50
2018-09-12T10:53:20.607Z,6.80
2018-09-12T10:55:49.963Z,6.23
2018-09-12T10:58:19.373Z,5.47
2018-09-12T11:00:48.816Z,5.77
2018-09-12T11:03:18.155Z,4.95
2018-09-12T11:05:47.591Z,3.33
2018-09-12T11:08:16.965Z,6.17
2018-09-12T11:10:46.964Z,4.13
2018-09-12T11:13:16.368Z,4.57
2018-09-12T11:15:45.737Z,2.87
2018-09-12T11:18:15.236Z,3.67
2018-09-12T11:20:44.581Z,4.58
2018-09-12T11:23:13.942Z,4.47
2018-09-12T11:25:43.378Z,3.63
2018-09-12T11:28:12.836Z,3.27
2018-09-12T11:30:42.220Z,3.00
2018-09-12T11:33:11.546Z,2.77
2018-09-12T11:35:40.906Z,4.47
2018-09-12T11:38:10.360Z,2.67
2018-09-12T11:40:39.684Z,3.20
2018-09-12T11:43:09.728Z,4.22
2018-09-12T11:45:39.878Z,3.58
2018-09-12T11:48:09.911Z,3.92
2018-09-12T11:50:39.795Z,3.47
2018-09-12T11:53:09.710Z,2.47
2018-09-12T11:55:42.578Z,2.80
2018-09-12T11:58:11.929Z,4.40
2018-09-12T12:00:41.270Z,2.63
2018-09-12T12:03:10.618Z,4.53
2018-09-12T12:05:39.953Z,5.73
2018-09-12T12:08:09.857Z,4.33
2018-09-12T12:10:39.826Z,3.80
2018-09-12T12:13:09.866Z,4.33
2018-09-12T12:15:39.769Z,4.90
2018-09-12T12:18:09.874Z,4.97
2018-09-12T12:20:39.813Z,5.33
2018-09-12T12:23:09.929Z,3.20
2018-09-12T12:25:39.891Z,3.25
2018-09-12T12:28:09.913Z,4.55
2018-09-12T12:30:39.905Z,2.95
2018-09-12T12:33:09.848Z,4.85
2018-09-12T12:35:39.920Z,5.33
2018-09-12T12:38:09.837Z,3.62
2018-09-12T12:40:39.895Z,5.58
2018-09-12T12:43:09.927Z,2.02
2018-09-12T12:45:39.909Z,3.37
2018-09-12T12:48:10.004Z,1.72
2018-09-12T12:50:39.932Z,1.98
2018-09-12T12:53:09.866Z,0.55
2018-09-12T12:55:39.844Z,0.85
2018-09-12T12:58:09.996Z,0.40
2018-09-12T13:00:39.888Z,0.93
2018-09-12T13:03:09.923Z,0.83
2018-09-12T13:05:39.929Z,0.60
2018-09-12T13:11:10.120Z,1.20
2018-09-12T13:13:40.001Z,0.55
2018-09-12T13:16:09.960Z,1.90
2018-09-12T13:18:40.055Z,1.92
2018-09-12T13:21:10.032Z,1.42
2018-09-12T13:23:40.159Z,0.90
2018-09-12T13:26:10.033Z,0.75
2018-09-12T13:28:40.119Z,1.67
2018-09-12T13:31:10.042Z,1.60
2018-09-12T13:33:40.089Z,1.35
2018-09-12T13:36:10.101Z,1.42
2018-09-12T13:38:40.202Z,3.30
2018-09-12T13:41:10.030Z,0.75
2018-09-12T13:43:40.012Z,0.72
2018-09-12T13:46:10.093Z,1.07
2018-09-12T13:48:40.090Z,3.83
2018-09-12T13:51:10.128Z,3.67
2018-09-12T13:53:40.090Z,3.10
2018-09-12T13:56:10.172Z,2.45
2018-09-12T13:58:40.297Z,2.45
2018-09-12T14:01:10.169Z,2.35
2018-09-12T14:03:40.276Z,1.98
2018-09-12T14:06:10.124Z,1.50
2018-09-12T14:08:40.164Z,2.55
2018-09-12T14:11:10.250Z,2.40
2018-09-12T14:13:40.197Z,2.77
2018-09-12T14:16:10.175Z,1.70
2018-09-12T14:18:40.146Z,2.33
2018-09-12T14:21:10.642Z,1.02
2018-09-12T14:23:40.888Z,3.47
2018-09-12T14:26:11.185Z,2.15
2018-09-12T14:28:40.614Z,1.83
2018-09-12T14:31:10.309Z,1.87
2018-09-12T14:33:40.569Z,2.85
2018-09-12T14:36:10.325Z,2.10
2018-09-12T14:38:40.333Z,0.50
2018-09-12T14:41:10.226Z,1.35
2018-09-12T14:43:40.361Z,4.72
2018-09-12T14:46:10.328Z,3.80
2018-09-12T14:48:40.322Z,2.00
2018-09-12T14:51:10.387Z,1.90
2018-09-12T14:53:40.264Z,2.62
2018-09-12T14:56:10.379Z,2.27
2018-09-12T14:58:40.262Z,3.13
2018-09-12T15:01:10.407Z,1.00
2018-09-12T15:03:40.418Z,1.45
2018-09-12T15:06:10.384Z,1.67
2018-09-12T15:08:40.371Z,2.98
2018-09-12T15:11:10.370Z,2.30
2018-09-12T15:13:40.585Z,1.77
2018-09-12T15:16:10.523Z,2.87
2018-09-12T15:18:40.403Z,2.33
2018-09-12T15:21:10.499Z,2.72
2018-09-12T15:23:40.465Z,2.50
2018-09-12T15:26:10.430Z,2.47
2018-09-12T15:28:40.444Z,2.60
2018-09-12T15:31:10.478Z,2.35
2018-09-12T15:33:46.888Z,4.05
2018-09-12T15:36:16.331Z,2.23
2018-09-12T15:38:45.704Z,4.07
2018-09-12T15:41:16.017Z,1.13
2018-09-12T15:43:45.303Z,2.10
2018-09-12T15:46:14.690Z,2.13
2018-09-12T15:48:44.074Z,2.10
2018-09-12T15:51:13.480Z,3.53
2018-09-12T15:53:42.881Z,2.50
2018-09-12T15:56:12.259Z,1.37
2018-09-12T15:58:41.734Z,1.53
2018-09-12T16:01:11.108Z,4.50
2018-09-12T16:03:40.584Z,1.83
2018-09-12T16:06:10.628Z,5.08
2018-09-12T16:08:40.597Z,2.75
2018-09-12T16:11:10.626Z,4.08
2018-09-12T16:13:40.592Z,1.47
2018-09-12T16:16:10.689Z,1.65
2018-09-12T16:18:40.614Z,2.50
2018-09-12T16:21:10.660Z,1.05
2018-09-12T16:23:40.876Z,2.20
2018-09-12T16:26:10.737Z,2.67
2018-09-12T16:28:40.718Z,4.08
2018-09-12T16:31:10.790Z,3.15
2018-09-12T16:33:40.709Z,3.42
2018-09-12T16:36:10.759Z,2.60
2018-09-12T16:38:41.263Z,1.47
2018-09-12T16:41:10.745Z,2.25
2018-09-12T16:43:40.702Z,2.33
2018-09-12T16:46:10.856Z,2.08
2018-09-12T16:48:40.745Z,2.87
2018-09-12T16:51:10.881Z,1.42
2018-09-12T16:53:40.754Z,4.08
2018-09-12T16:56:10.950Z,3.25
2018-09-12T16:58:40.883Z,3.25
2018-09-12T17:01:10.775Z,2.75
2018-09-12T17:03:40.899Z,1.93
2018-09-12T17:06:10.922Z,2.37
2018-09-12T17:08:40.298Z,2.23
2018-09-12T17:11:09.713Z,2.80
2018-09-12T17:13:39.050Z,3.27
2018-09-12T17:16:08.541Z,2.83
2018-09-12T17:18:37.903Z,1.67
2018-09-12T17:21:07.212Z,1.97
2018-09-12T17:23:36.589Z,2.50
2018-09-12T17:26:05.994Z,2.13
2018-09-12T17:28:39.595Z,3.40
2018-09-12T17:31:09.062Z,3.20
2018-09-12T17:33:38.487Z,2.47
2018-09-12T17:36:07.978Z,4.80
2018-09-12T17:38:37.329Z,1.93
2018-09-12T17:41:06.672Z,2.70
2018-09-12T17:43:36.174Z,1.70
2018-09-12T17:46:05.558Z,3.63
2018-09-12T17:48:34.921Z,4.13
2018-09-12T17:51:04.294Z,3.63
2018-09-12T17:53:33.559Z,3.23
2018-09-12T17:56:02.971Z,3.57
2018-09-12T17:58:32.306Z,4.37
2018-09-12T18:01:01.675Z,3.13
2018-09-12T18:03:31.031Z,2.80
2018-09-12T18:06:00.472Z,2.37
2018-09-12T18:08:32.618Z,2.53
2018-09-12T18:11:02.046Z,3.37
2018-09-12T18:13:31.394Z,2.80
2018-09-12T18:16:00.739Z,3.47
2018-09-12T18:18:30.910Z,2.17
2018-09-12T18:21:01.080Z,3.33
2018-09-12T18:23:30.912Z,2.62
2018-09-12T18:26:00.826Z,4.25
2018-09-12T18:28:30.792Z,2.83
2018-09-12T18:31:00.903Z,3.50
2018-09-12T18:33:30.972Z,3.47
2018-09-12T18:36:00.987Z,4.30
2018-09-12T18:38:30.962Z,2.83
2018-09-12T18:41:00.853Z,3.75
2018-09-12T18:43:30.875Z,3.33
2018-09-12T18:46:01.055Z,4.85
2018-09-12T18:48:30.931Z,3.93
2018-09-12T18:51:05.124Z,5.87
2018-09-12T18:53:34.611Z,4.50
2018-09-12T18:56:04.081Z,4.60
2018-09-12T18:58:33.574Z,2.93
2018-09-12T19:01:03.038Z,2.65
2018-09-12T19:03:32.514Z,3.43
2018-09-12T19:06:01.893Z,3.20
2018-09-12T19:08:31.217Z,3.73
2018-09-12T19:11:01.174Z,2.47
2018-09-12T19:13:30.917Z,4.47
2018-09-12T19:16:01.106Z,5.50
2018-09-12T19:18:31.113Z,5.15
2018-09-12T19:21:00.972Z,4.17
2018-09-12T19:23:31.066Z,5.70
2018-09-12T19:26:01.152Z,6.53
2018-09-12T19:28:31.208Z,5.08
2018-09-12T19:31:00.904Z,2.77
2018-09-12T19:33:31.021Z,6.67
2018-09-12T19:36:01.216Z,5.00
2018-09-12T19:38:31.002Z,3.60
2018-09-12T19:41:01.216Z,4.05
2018-09-12T19:43:31.049Z,4.58
2018-09-12T19:46:01.026Z,4.70
2018-09-12T19:48:30.986Z,3.62
2018-09-12T19:51:00.991Z,3.42
2018-09-12T19:53:31.046Z,4.22
2018-09-12T19:56:01.033Z,5.10
2018-09-12T19:58:31.056Z,5.40
2018-09-12T20:01:01.009Z,5.33
2018-09-12T20:03:31.010Z,4.85
2018-09-12T20:06:01.150Z,4.35
2018-09-12T20:08:31.114Z,3.55
2018-09-12T20:11:01.236Z,3.87
2018-09-12T20:13:31.385Z,3.53
2018-09-12T20:16:01.212Z,3.15
2018-09-12T20:18:31.126Z,4.78
2018-09-12T20:21:01.037Z,3.55
2018-09-12T20:23:31.118Z,3.33
2018-09-12T20:26:01.128Z,4.62
2018-09-12T20:28:39.102Z,4.08
2018-09-12T20:31:09.186Z,6.07
2018-09-12T20:33:38.921Z,4.47
2018-09-12T20:36:08.305Z,6.90
2018-09-12T20:38:37.658Z,4.57
2018-09-12T20:41:07.046Z,3.50
2018-09-12T20:43:36.410Z,4.30
2018-09-12T20:46:05.921Z,5.23
2018-09-12T20:48:35.253Z,6.85
2018-09-12T20:51:04.633Z,2.93
2018-09-12T20:53:34.026Z,3.27
2018-09-12T20:56:03.454Z,4.47
2018-09-12T20:58:32.843Z,4.27
2018-09-12T21:01:02.258Z,4.58
2018-09-12T21:03:31.558Z,3.83
2018-09-12T21:06:01.121Z,4.42
2018-09-12T21:08:31.228Z,5.70
2018-09-12T21:11:01.239Z,4.62
2018-09-12T21:13:31.231Z,6.00
2018-09-12T21:16:01.209Z,5.95
2018-09-12T21:18:31.205Z,4.43
2018-09-12T21:21:01.470Z,3.87
2018-09-12T21:23:31.217Z,3.65
2018-09-12T21:29:01.397Z,3.37
2018-09-12T21:31:31.270Z,2.58
2018-09-12T21:34:01.267Z,4.23
2018-09-12T21:36:31.324Z,3.47
2018-09-12T21:39:01.335Z,3.75
2018-09-12T21:41:31.229Z,4.03
2018-09-12T21:44:01.264Z,4.87
2018-09-12T21:46:31.287Z,7.22
2018-09-12T21:49:01.317Z,3.30
2018-09-12T21:51:31.487Z,6.00
2018-09-12T21:54:01.326Z,3.25
2018-09-12T21:56:31.174Z,3.85
2018-09-12T21:59:01.333Z,3.95
2018-09-12T22:01:31.267Z,4.00
2018-09-12T22:04:01.350Z,5.45
2018-09-12T22:06:31.380Z,4.90
2018-09-12T22:09:01.337Z,5.80
2018-09-12T22:11:31.341Z,4.45
2018-09-12T22:14:01.488Z,4.65
2018-09-12T22:16:31.327Z,4.90
2018-09-12T22:19:01.553Z,5.08
2018-09-12T22:21:31.422Z,4.50
2018-09-12T22:24:01.354Z,3.87
2018-09-12T22:26:31.372Z,5.37
2018-09-12T22:29:01.362Z,4.62
2018-09-12T22:31:31.346Z,5.10
2018-09-12T22:34:01.418Z,4.35
2018-09-12T22:36:31.412Z,3.70
2018-09-12T22:39:01.366Z,5.03
2018-09-12T22:41:31.358Z,5.78
2018-09-12T22:44:01.381Z,4.72
2018-09-12T22:46:31.398Z,4.85
2018-09-12T22:49:01.414Z,6.97
2018-09-12T22:51:31.434Z,6.55
2018-09-12T22:54:01.432Z,5.28
2018-09-12T22:56:31.397Z,3.07
2018-09-12T22:59:01.311Z,4.95
2018-09-12T23:01:31.441Z,2.60
2018-09-12T23:04:01.424Z,4.55
2018-09-12T23:06:31.354Z,4.53
2018-09-12T23:09:01.371Z,4.10
2018-09-12T23:11:31.531Z,3.55
2018-09-12T23:14:01.482Z,4.05
2018-09-12T23:16:31.507Z,8.43
2018-09-12T23:19:01.435Z,4.60
2018-09-12T23:21:31.450Z,3.70
2018-09-12T23:24:01.430Z,3.95
2018-09-12T23:26:31.551Z,4.53
2018-09-12T23:29:01.440Z,4.10
2018-09-12T23:31:31.373Z,3.22
2018-09-12T23:34:01.468Z,4.03
2018-09-12T23:36:31.498Z,5.22
2018-09-12T23:39:01.438Z,3.90
2018-09-12T23:41:31.535Z,4.08
2018-09-12T23:44:01.586Z,4.78
2018-09-12T23:46:31.488Z,5.25
2018-09-12T23:49:01.563Z,4.20
2018-09-12T23:51:31.558Z,6.22
2018-09-12T23:54:01.511Z,5.87
2018-09-12T23:56:31.548Z,7.22
2018-09-12T23:59:01.535Z,6.47
